Time;durP1;ratioP1;P1;durP2;ratioP2;P2;SDS_P1;SDS_P2;PMS_P1;PMS_P2;Temp;Humidity;BMP_temperature;BMP_pressure;BME280_temperature;BME280_humidity;BME280_pressure;Samples;Min_cycle;Max_cycle;Signal;HPM_P1;HPM_P2
2021/06/19 00:00:29;;;;;;;7.73;6.93;;;26.30;1.00;;;;;;5070725;28;20487;-57
2021/06/19 00:02:55;;;;;;;7.97;7.27;;;26.20;1.00;;;;;;5086262;28;20772;-58
2021/06/19 00:05:21;;;;;;;7.73;7.03;;;26.10;1.00;;;;;;5078739;28;20920;-57
2021/06/19 00:07:47;;;;;;;8.33;7.63;;;26.10;1.00;;;;;;5078769;28;20441;-57
2021/06/19 00:10:14;;;;;;;7.90;7.10;;;26.00;1.00;;;;;;5077631;28;20946;-57
2021/06/19 00:12:40;;;;;;;9.57;7.70;;;26.00;1.00;;;;;;5078295;28;20355;-57
2021/06/19 00:15:08;;;;;;;7.40;6.80;;;26.10;1.00;;;;;;5078122;28;20476;-59
2021/06/19 00:17:35;;;;;;;11.50;6.77;;;26.10;1.00;;;;;;5082953;28;20823;-57
2021/06/19 00:20:01;;;;;;;8.50;7.70;;;26.00;1.00;;;;;;5082051;28;20460;-57
2021/06/19 00:22:26;;;;;;;7.87;6.97;;;26.10;1.00;;;;;;5088274;28;20510;-58
2021/06/19 00:24:52;;;;;;;8.47;7.70;;;25.90;1.00;;;;;;5080541;28;20186;-60
2021/06/19 00:27:17;;;;;;;8.60;7.57;;;25.90;1.00;;;;;;5073086;28;20671;-56
2021/06/19 00:29:43;;;;;;;7.30;6.70;;;25.90;1.00;;;;;;5085322;28;20227;-57
2021/06/19 00:32:08;;;;;;;7.97;7.17;;;26.50;1.00;;;;;;5078404;28;20541;-56
2021/06/19 00:34:34;;;;;;;9.63;8.80;;;25.80;1.00;;;;;;5088509;28;20673;-57
2021/06/19 00:37:00;;;;;;;8.10;7.50;;;25.90;1.00;;;;;;5077366;28;20211;-58
2021/06/19 00:39:25;;;;;;;8.87;8.00;;;25.90;1.00;;;;;;5085779;28;20633;-57
2021/06/19 00:41:52;;;;;;;8.07;7.47;;;25.80;1.00;;;;;;5075643;28;20171;-58
2021/06/19 00:44:20;;;;;;;7.47;6.93;;;25.90;1.00;;;;;;5080636;28;20182;-57
2021/06/19 00:46:54;;;;;;;8.50;7.30;;;25.80;1.00;;;;;;5090778;28;20944;-57
2021/06/19 00:49:20;;;;;;;7.93;7.13;;;25.70;1.00;;;;;;5075297;28;21019;-59
2021/06/19 00:51:46;;;;;;;7.60;6.87;;;25.80;1.00;;;;;;5075918;28;20444;-58
2021/06/19 00:54:13;;;;;;;8.63;7.10;;;25.60;1.00;;;;;;5075100;28;20512;-56
2021/06/19 00:56:39;;;;;;;7.70;7.07;;;25.60;1.00;;;;;;5086488;28;20228;-57
2021/06/19 00:59:07;;;;;;;7.50;7.00;;;25.60;1.00;;;;;;5091021;28;20917;-60
2021/06/19 01:01:33;;;;;;;8.50;7.80;;;25.60;1.00;;;;;;5084333;28;20457;-57
2021/06/19 01:04:01;;;;;;;9.80;7.90;;;25.70;1.00;;;;;;5084680;28;20471;-59
2021/06/19 01:06:27;;;;;;;9.13;8.00;;;25.70;1.00;;;;;;5094402;28;20466;-57
2021/06/19 01:08:52;;;;;;;7.70;7.10;;;25.70;1.00;;;;;;5081969;28;20513;-57
2021/06/19 01:11:21;;;;;;;7.90;7.23;;;25.60;1.00;;;;;;5079869;28;20842;-61
2021/06/19 01:13:48;;;;;;;7.40;6.80;;;25.50;1.00;;;;;;5080332;28;20191;-60
2021/06/19 01:16:15;;;;;;;6.93;6.23;;;25.50;1.00;;;;;;5075324;28;20434;-58
2021/06/19 01:18:41;;;;;;;8.70;7.57;;;25.50;1.00;;;;;;5077067;28;20464;-58
2021/06/19 01:21:21;;;;;;;7.97;7.27;;;25.60;1.00;;;;;;5094209;28;20423;-58
2021/06/19 01:23:47;;;;;;;6.90;6.30;;;25.50;1.00;;;;;;5085933;28;20257;-58
2021/06/19 01:26:14;;;;;;;8.00;7.30;;;25.40;1.00;;;;;;5090774;28;20429;-58
2021/06/19 01:28:41;;;;;;;7.23;6.63;;;25.40;1.00;;;;;;5090321;28;20493;-57
2021/06/19 01:31:06;;;;;;;7.80;7.10;;;25.40;1.00;;;;;;5077618;28;20485;-58
2021/06/19 01:33:32;;;;;;;6.90;6.40;;;25.40;1.00;;;;;;5072142;28;21030;-59
2021/06/19 01:35:57;;;;;;;7.77;6.97;;;25.40;1.00;;;;;;5076514;28;20582;-59
2021/06/19 01:38:23;;;;;;;7.77;7.07;;;25.30;1.00;;;;;;5080754;28;20203;-58
2021/06/19 01:40:48;;;;;;;8.20;7.40;;;25.10;1.00;;;;;;5081841;28;20229;-57
2021/06/19 01:43:14;;;;;;;7.43;6.80;;;25.20;1.00;;;;;;5077627;28;20180;-58
2021/06/19 01:45:40;;;;;;;7.73;7.03;;;25.10;1.00;;;;;;5074960;28;20179;-57
2021/06/19 01:48:07;;;;;;;8.07;7.37;;;25.10;1.00;;;;;;5078942;28;20187;-59
2021/06/19 01:50:35;;;;;;;7.67;7.07;;;25.20;1.00;;;;;;5084248;28;20600;-57
2021/06/19 01:53:01;;;;;;;7.83;7.03;;;25.20;1.00;;;;;;5081570;28;20537;-58
2021/06/19 01:55:26;;;;;;;7.40;6.80;;;25.20;1.00;;;;;;5075013;28;20852;-57
2021/06/19 01:57:58;;;;;;;9.67;7.90;;;25.10;1.00;;;;;;5091840;28;20480;-57
2021/06/19 02:00:30;;;;;;;8.07;7.27;;;25.10;1.00;;;;;;5084789;28;20181;-59
2021/06/19 02:02:55;;;;;;;9.83;7.03;;;25.10;1.00;;;;;;5089612;28;20429;-58
2021/06/19 02:05:23;;;;;;;7.50;6.90;;;25.00;1.00;;;;;;5090640;28;20979;-58
2021/06/19 02:07:54;;;;;;;8.03;6.90;;;25.00;1.00;;;;;;5082513;28;20180;-58
2021/06/19 02:10:23;;;;;;;9.33;7.07;;;25.00;1.00;;;;;;5078983;28;20448;-58
2021/06/19 02:12:49;;;;;;;7.63;6.93;;;25.00;1.00;;;;;;5084446;28;20516;-57
2021/06/19 02:15:15;;;;;;;7.57;6.93;;;25.00;1.00;;;;;;5086920;28;20876;-58
2021/06/19 02:17:41;;;;;;;8.00;7.10;;;25.00;1.00;;;;;;5080135;28;20660;-57
2021/06/19 02:20:09;;;;;;;8.83;6.93;;;25.00;1.00;;;;;;5080826;28;20437;-58
2021/06/19 02:22:35;;;;;;;7.13;6.63;;;25.00;1.00;;;;;;5076928;28;20437;-57
2021/06/19 02:25:07;;;;;;;7.13;6.53;;;24.90;1.00;;;;;;5073597;28;20919;-59
2021/06/19 02:27:33;;;;;;;7.03;6.50;;;24.90;1.00;;;;;;5065737;28;20442;-59
2021/06/19 02:29:59;;;;;;;7.70;7.10;;;24.90;1.00;;;;;;5081517;28;20574;-57
2021/06/19 02:32:25;;;;;;;7.67;6.70;;;24.90;1.00;;;;;;5082734;28;20190;-57
2021/06/19 02:34:51;;;;;;;9.10;6.60;;;24.90;1.00;;;;;;5077118;28;20448;-57
2021/06/19 02:37:18;;;;;;;7.53;6.70;;;25.00;1.00;;;;;;5091005;28;20559;-57
2021/06/19 02:39:43;;;;;;;7.00;6.40;;;24.90;1.00;;;;;;5092420;28;20182;-58
2021/06/19 02:42:09;;;;;;;7.70;6.90;;;24.80;1.00;;;;;;5089368;28;20432;-59
2021/06/19 02:44:35;;;;;;;7.50;6.67;;;24.80;1.00;;;;;;5087209;28;20514;-58
2021/06/19 02:47:00;;;;;;;6.90;6.30;;;24.80;1.00;;;;;;5082212;28;20190;-58
2021/06/19 02:49:26;;;;;;;7.77;7.07;;;24.80;1.00;;;;;;5073193;28;20193;-58
2021/06/19 02:51:51;;;;;;;7.30;6.77;;;24.80;1.00;;;;;;5085808;28;20196;-58
2021/06/19 02:54:17;;;;;;;10.27;6.57;;;24.80;1.00;;;;;;5078243;28;20248;-58
2021/06/19 02:56:43;;;;;;;6.93;6.33;;;24.80;1.00;;;;;;5088048;28;20633;-59
2021/06/19 02:59:08;;;;;;;6.67;6.17;;;24.80;1.00;;;;;;5085776;28;20300;-57
2021/06/19 03:01:34;;;;;;;8.10;7.40;;;24.80;1.00;;;;;;5080440;28;20191;-57
2021/06/19 03:03:59;;;;;;;8.50;6.47;;;24.80;1.00;;;;;;5077392;28;20179;-56
2021/06/19 03:06:25;;;;;;;6.47;5.83;;;24.70;1.00;;;;;;5080347;28;20179;-57
2021/06/19 03:08:50;;;;;;;6.83;6.20;;;24.60;1.00;;;;;;5075139;28;20190;-58
2021/06/19 03:11:16;;;;;;;7.30;6.60;;;24.60;1.00;;;;;;5076623;28;20183;-58
2021/06/19 03:13:41;;;;;;;6.60;6.00;;;24.70;1.00;;;;;;5076197;28;20175;-58
2021/06/19 03:16:07;;;;;;;7.07;6.40;;;24.60;1.00;;;;;;5086381;28;20213;-58
2021/06/19 03:18:32;;;;;;;7.57;6.97;;;24.60;1.00;;;;;;5074537;28;20215;-59
2021/06/19 03:20:58;;;;;;;6.80;6.30;;;24.60;1.00;;;;;;5083197;28;20175;-58
2021/06/19 03:23:23;;;;;;;7.17;6.47;;;24.70;1.00;;;;;;5077414;28;20195;-59
2021/06/19 03:25:49;;;;;;;7.43;6.70;;;24.60;1.00;;;;;;5091495;28;20208;-60
2021/06/19 03:28:15;;;;;;;7.63;6.67;;;24.60;1.00;;;;;;5085223;28;20696;-58
2021/06/19 03:30:47;;;;;;;8.43;6.87;;;24.60;1.00;;;;;;5079098;28;20663;-58
2021/06/19 03:33:15;;;;;;;13.87;7.90;;;24.80;1.00;;;;;;5077886;28;20469;-58
2021/06/19 03:35:41;;;;;;;7.57;6.87;;;25.00;1.00;;;;;;5079510;28;20784;-58
2021/06/19 03:38:07;;;;;;;6.77;6.20;;;25.20;1.00;;;;;;5069947;28;20500;-58
2021/06/19 03:40:34;;;;;;;6.43;5.83;;;25.40;1.00;;;;;;5079411;28;20429;-59
2021/06/19 03:43:00;;;;;;;7.23;6.60;;;25.60;1.00;;;;;;5079455;28;20426;-58
2021/06/19 03:45:34;;;;;;;7.60;6.90;;;25.70;1.00;;;;;;5081915;28;20428;-59
2021/06/19 03:47:59;;;;;;;7.57;6.97;;;25.80;1.00;;;;;;5087022;28;21020;-58
2021/06/19 03:50:27;;;;;;;7.20;6.50;;;25.90;1.00;;;;;;5086909;28;20531;-59
2021/06/19 03:52:53;;;;;;;6.77;6.13;;;26.00;1.00;;;;;;5088346;28;20183;-58
2021/06/19 03:55:19;;;;;;;6.70;6.10;;;26.20;1.00;;;;;;5076070;28;20769;-58
2021/06/19 03:57:45;;;;;;;6.77;6.17;;;26.10;1.00;;;;;;5081798;28;20479;-59
2021/06/19 04:00:14;;;;;;;6.67;5.97;;;26.10;1.00;;;;;;5077406;28;20438;-59
2021/06/19 04:02:40;;;;;;;7.50;6.10;;;26.00;1.00;;;;;;5080098;28;20193;-59
2021/06/19 04:05:07;;;;;;;7.53;6.93;;;26.00;1.00;;;;;;5076887;28;20493;-59
2021/06/19 04:07:33;;;;;;;6.63;6.13;;;25.90;1.00;;;;;;5077064;28;20456;-58
2021/06/19 04:09:59;;;;;;;6.77;6.17;;;25.70;1.00;;;;;;5075402;28;20441;-58
2021/06/19 04:12:24;;;;;;;7.80;7.20;;;25.60;1.00;;;;;;5091151;28;20194;-59
2021/06/19 04:14:51;;;;;;;7.60;7.00;;;25.50;1.00;;;;;;5075049;28;20187;-59
2021/06/19 04:17:17;;;;;;;7.57;5.90;;;25.50;1.00;;;;;;5081541;28;20198;-59
2021/06/19 04:19:43;;;;;;;7.90;6.20;;;25.50;1.00;;;;;;5086524;28;20832;-58
2021/06/19 04:22:10;;;;;;;6.77;6.23;;;25.40;1.00;;;;;;5090876;28;20420;-59
2021/06/19 04:24:35;;;;;;;7.03;6.43;;;25.40;1.00;;;;;;5078142;28;20438;-57
2021/06/19 04:27:02;;;;;;;6.80;6.10;;;25.60;1.00;;;;;;5078211;28;20468;-60
2021/06/19 04:29:28;;;;;;;7.97;7.37;;;25.50;1.00;;;;;;5087286;28;20234;-59
2021/06/19 04:31:55;;;;;;;7.87;7.13;;;25.50;1.00;;;;;;5091588;28;20740;-59
2021/06/19 04:34:22;;;;;;;6.77;6.27;;;25.50;1.00;;;;;;5083509;28;20973;-60
2021/06/19 04:36:47;;;;;;;6.80;6.30;;;25.50;1.00;;;;;;5078728;28;20448;-59
2021/06/19 04:39:13;;;;;;;7.33;6.63;;;25.40;1.00;;;;;;5080361;28;20927;-58
2021/06/19 04:41:52;;;;;;;7.70;7.20;;;25.50;1.00;;;;;;5089879;28;20510;-59
2021/06/19 04:44:30;;;;;;;6.53;6.03;;;25.60;1.00;;;;;;5091573;28;20189;-58
2021/06/19 04:46:56;;;;;;;6.53;6.00;;;25.60;1.00;;;;;;5074534;28;20433;-60
2021/06/19 04:49:21;;;;;;;7.83;7.07;;;25.80;1.00;;;;;;5083901;28;20449;-58
2021/06/19 04:51:47;;;;;;;7.10;6.50;;;25.90;1.00;;;;;;5084843;28;20187;-58
2021/06/19 04:54:13;;;;;;;7.10;6.60;;;26.00;1.00;;;;;;5087033;28;20274;-57
2021/06/19 04:56:39;;;;;;;7.70;7.00;;;26.10;1.00;;;;;;5078613;28;20659;-58
2021/06/19 04:59:05;;;;;;;7.33;6.70;;;26.00;1.00;;;;;;5082523;28;20433;-57
2021/06/19 05:01:31;;;;;;;7.03;6.53;;;26.20;1.00;;;;;;5091177;28;20442;-59
2021/06/19 05:03:57;;;;;;;7.50;6.90;;;26.10;1.00;;;;;;5080986;28;20441;-59
2021/06/19 05:06:22;;;;;;;6.93;6.30;;;26.20;1.00;;;;;;5081749;28;20183;-60
2021/06/19 05:08:48;;;;;;;7.07;6.57;;;26.30;1.00;;;;;;5080736;28;20190;-60
2021/06/19 05:11:13;;;;;;;6.87;6.23;;;26.50;1.00;;;;;;5077120;28;20289;-59
2021/06/19 05:13:39;;;;;;;6.60;6.10;;;26.60;1.00;;;;;;5094254;28;20191;-59
2021/06/19 05:16:04;;;;;;;7.63;7.03;;;26.50;1.00;;;;;;5089711;28;20191;-59
2021/06/19 05:18:30;;;;;;;7.20;6.60;;;26.60;1.00;;;;;;5083229;28;20220;-58
2021/06/19 05:20:56;;;;;;;6.63;6.03;;;26.70;1.00;;;;;;5076784;28;20223;-59
2021/06/19 05:23:22;;;;;;;6.37;5.87;;;26.80;1.00;;;;;;5086215;28;20627;-59
2021/06/19 05:25:47;;;;;;;7.13;6.53;;;26.90;1.00;;;;;;5093292;28;20182;-59
2021/06/19 05:28:13;;;;;;;6.77;6.37;;;26.90;1.00;;;;;;5077290;28;20465;-60
2021/06/19 05:30:39;;;;;;;6.63;6.03;;;27.10;1.00;;;;;;5073472;28;20278;-58
2021/06/19 05:33:06;;;;;;;7.43;6.57;;;27.20;1.00;;;;;;5086986;28;20205;-58
2021/06/19 05:35:31;;;;;;;6.77;6.20;;;27.20;1.00;;;;;;5079107;28;20266;-58
2021/06/19 05:37:57;;;;;;;7.33;6.63;;;27.30;1.00;;;;;;5073399;28;20556;-59
2021/06/19 05:40:23;;;;;;;6.97;6.37;;;27.40;1.00;;;;;;5084376;28;20440;-60
2021/06/19 05:42:48;;;;;;;7.13;6.53;;;27.40;1.00;;;;;;5075497;28;20529;-57
2021/06/19 05:45:14;;;;;;;7.00;6.33;;;27.50;1.00;;;;;;5082867;28;20636;-59
2021/06/19 05:47:40;;;;;;;7.03;6.53;;;27.50;1.00;;;;;;5081353;28;20267;-58
2021/06/19 05:50:06;;;;;;;7.63;6.93;;;27.60;1.00;;;;;;5077270;28;20185;-59
2021/06/19 05:52:32;;;;;;;7.07;6.43;;;27.70;1.00;;;;;;5081406;28;20639;-59
2021/06/19 05:54:59;;;;;;;7.47;6.57;;;27.80;1.00;;;;;;5085956;28;20440;-60
2021/06/19 05:57:24;;;;;;;7.33;6.50;;;27.90;1.00;;;;;;5073132;28;20731;-59
2021/06/19 05:59:50;;;;;;;7.23;6.53;;;27.80;1.00;;;;;;5085880;28;21096;-57
2021/06/19 06:02:15;;;;;;;7.93;7.17;;;27.80;1.00;;;;;;5087240;28;20177;-58
2021/06/19 06:04:42;;;;;;;8.13;6.70;;;27.80;1.00;;;;;;5086953;28;20187;-58
2021/06/19 06:07:07;;;;;;;6.97;6.40;;;27.90;1.00;;;;;;5074371;28;20183;-59
2021/06/19 06:09:33;;;;;;;6.90;6.30;;;28.00;1.00;;;;;;5074726;28;20922;-59
2021/06/19 06:11:58;;;;;;;7.57;6.97;;;28.00;1.00;;;;;;5077410;28;20214;-58
2021/06/19 06:14:24;;;;;;;7.37;6.77;;;28.00;1.00;;;;;;5071322;28;20286;-60
2021/06/19 06:16:49;;;;;;;7.30;6.80;;;28.00;1.00;;;;;;5076065;28;20243;-58
2021/06/19 06:19:18;;;;;;;8.37;7.67;;;29.10;1.00;;;;;;5082762;28;20186;-57
2021/06/19 06:21:44;;;;;;;7.50;6.90;;;28.20;1.00;;;;;;5092796;28;20205;-58
2021/06/19 06:24:09;;;;;;;7.70;6.97;;;28.40;1.00;;;;;;5089217;28;20540;-58
2021/06/19 06:26:35;;;;;;;7.33;6.80;;;28.60;1.00;;;;;;5083391;28;20259;-57
2021/06/19 06:29:00;;;;;;;7.57;6.97;;;28.70;1.00;;;;;;5083377;28;20716;-59
2021/06/19 06:31:26;;;;;;;7.87;7.17;;;28.80;1.00;;;;;;5087423;28;20215;-58
2021/06/19 06:33:52;;;;;;;7.00;6.50;;;28.90;1.00;;;;;;5084292;28;20183;-57
2021/06/19 06:36:17;;;;;;;7.80;7.10;;;28.90;1.00;;;;;;5089725;28;20183;-59
2021/06/19 06:38:43;;;;;;;7.07;6.37;;;29.00;1.00;;;;;;5084601;28;20203;-58
2021/06/19 06:41:08;;;;;;;8.43;7.70;;;29.00;1.00;;;;;;5071915;28;20266;-59
2021/06/19 06:43:34;;;;;;;7.10;6.50;;;29.10;1.00;;;;;;5084525;28;20221;-57
2021/06/19 06:46:00;;;;;;;7.70;7.10;;;29.10;1.00;;;;;;5081648;28;20552;-58
2021/06/19 06:48:28;;;;;;;7.30;6.70;;;29.30;1.00;;;;;;5088252;28;20766;-59
2021/06/19 06:50:54;;;;;;;7.57;6.93;;;29.40;1.00;;;;;;5086547;28;20955;-56
2021/06/19 06:53:19;;;;;;;7.57;6.97;;;29.60;1.00;;;;;;5070932;28;20433;-59
2021/06/19 06:55:46;;;;;;;7.53;6.20;;;29.60;1.00;;;;;;5075562;28;20197;-58
2021/06/19 06:58:11;;;;;;;8.00;7.40;;;29.60;1.00;;;;;;5072953;28;20205;-59
2021/06/19 07:00:37;;;;;;;10.53;7.07;;;29.80;1.00;;;;;;5076064;28;20438;-57
2021/06/19 07:03:03;;;;;;;7.27;6.57;;;29.80;1.00;;;;;;5088592;28;20563;-58
2021/06/19 07:05:28;;;;;;;7.53;6.90;;;29.80;1.00;;;;;;5074283;28;20186;-57
2021/06/19 07:07:54;;;;;;;8.23;7.53;;;29.80;1.00;;;;;;5090608;28;20186;-58
2021/06/19 07:10:19;;;;;;;7.37;6.83;;;30.00;1.00;;;;;;5078649;28;20175;-58
2021/06/19 07:12:45;;;;;;;8.53;7.83;;;30.10;1.00;;;;;;5081329;28;20258;-58
2021/06/19 07:15:16;;;;;;;8.50;7.90;;;30.30;1.00;;;;;;5072768;28;20830;-59
2021/06/19 07:17:42;;;;;;;7.10;6.60;;;30.40;1.00;;;;;;5080777;28;20199;-59
2021/06/19 07:20:11;;;;;;;10.20;6.70;;;30.30;1.00;;;;;;5072820;28;20433;-58
2021/06/19 07:22:38;;;;;;;8.10;7.50;;;30.40;1.00;;;;;;5075671;28;20441;-58
2021/06/19 07:25:05;;;;;;;7.10;6.60;;;30.40;1.00;;;;;;5079882;28;20433;-57
2021/06/19 07:27:31;;;;;;;8.20;7.40;;;30.50;1.00;;;;;;5071069;28;20515;-59
2021/06/19 07:29:57;;;;;;;8.10;7.40;;;30.60;1.00;;;;;;5088086;28;21054;-58
2021/06/19 07:32:22;;;;;;;7.77;6.53;;;30.60;1.00;;;;;;5075996;28;20183;-58
2021/06/19 07:34:48;;;;;;;8.40;7.47;;;30.70;1.00;;;;;;5078761;28;20629;-58
2021/06/19 07:37:13;;;;;;;11.27;10.17;;;30.80;1.00;;;;;;5072119;28;20660;-59
2021/06/19 07:39:39;;;;;;;8.00;7.30;;;30.90;1.00;;;;;;5082074;28;20183;-57
2021/06/19 07:42:05;;;;;;;8.30;7.60;;;31.20;1.00;;;;;;5067017;28;20231;-59
2021/06/19 07:44:31;;;;;;;7.50;6.90;;;31.40;1.00;;;;;;5086301;28;20274;-59
2021/06/19 07:46:59;;;;;;;7.47;6.70;;;31.40;1.00;;;;;;5084715;28;20458;-59
2021/06/19 07:49:26;;;;;;;8.27;7.57;;;31.40;1.00;;;;;;5080409;28;20432;-58
2021/06/19 07:51:51;;;;;;;8.07;7.27;;;31.60;1.00;;;;;;5078313;28;20443;-58
2021/06/19 07:54:17;;;;;;;8.17;7.47;;;31.70;1.00;;;;;;5073440;28;20433;-58
2021/06/19 07:56:45;;;;;;;7.90;7.30;;;31.70;1.00;;;;;;5072963;28;20183;-58
2021/06/19 07:59:11;;;;;;;7.70;7.10;;;31.70;1.00;;;;;;5078127;28;20186;-57
2021/06/19 08:01:36;;;;;;;8.47;7.77;;;31.80;1.00;;;;;;5074849;28;20450;-58
2021/06/19 08:04:02;;;;;;;7.93;7.33;;;31.90;1.00;;;;;;5076302;28;20191;-59
2021/06/19 08:06:28;;;;;;;13.20;9.10;;;32.10;1.00;;;;;;5075827;28;20256;-58
2021/06/19 08:08:54;;;;;;;8.43;6.53;;;32.20;1.00;;;;;;5069992;28;20262;-59
2021/06/19 08:11:25;;;;;;;7.10;6.50;;;32.40;1.00;;;;;;5070090;28;20179;-59
2021/06/19 08:13:50;;;;;;;8.67;7.57;;;32.60;1.00;;;;;;5082752;28;20437;-58
2021/06/19 08:16:18;;;;;;;12.73;7.50;;;32.70;1.00;;;;;;5076760;28;20532;-59
2021/06/19 08:18:46;;;;;;;12.77;8.27;;;32.80;1.00;;;;;;5086396;28;20199;-58
2021/06/19 08:21:13;;;;;;;8.33;7.40;;;32.90;1.00;;;;;;5069733;28;20437;-58
2021/06/19 08:23:39;;;;;;;11.30;7.67;;;33.00;1.00;;;;;;5078221;28;20474;-59
2021/06/19 08:26:04;;;;;;;41.73;11.10;;;33.10;1.00;;;;;;5071987;28;20429;-59
2021/06/19 08:28:32;;;;;;;14.43;8.87;;;33.20;1.00;;;;;;5080100;28;20236;-59
2021/06/19 08:30:58;;;;;;;48.80;13.40;;;33.30;1.00;;;;;;5081060;28;20179;-60
2021/06/19 08:33:23;;;;;;;7.00;6.47;;;33.20;1.00;;;;;;5077079;28;20453;-63
2021/06/19 08:35:49;;;;;;;22.70;9.90;;;33.30;1.00;;;;;;5068377;28;20266;-58
2021/06/19 08:38:14;;;;;;;10.50;7.50;;;33.30;1.00;;;;;;5078571;28;20208;-58
2021/06/19 08:40:40;;;;;;;20.53;9.00;;;33.30;1.00;;;;;;5087402;28;20213;-58
2021/06/19 08:43:06;;;;;;;7.97;7.20;;;33.30;1.00;;;;;;5071904;28;20187;-59
2021/06/19 08:45:33;;;;;;;8.73;8.00;;;33.30;1.00;;;;;;5069623;28;20207;-60
2021/06/19 08:48:04;;;;;;;14.07;7.83;;;33.30;1.00;;;;;;5069663;28;20655;-57
2021/06/19 08:50:30;;;;;;;7.53;7.03;;;33.50;1.00;;;;;;5077031;28;20478;-59
2021/06/19 08:52:58;;;;;;;8.20;7.60;;;33.60;1.00;;;;;;5068730;28;20954;-58
2021/06/19 08:55:23;;;;;;;8.03;7.50;;;34.10;1.00;;;;;;5077675;28;20432;-63
2021/06/19 08:57:49;;;;;;;7.63;7.03;;;34.40;1.00;;;;;;5090550;28;20802;-62
2021/06/19 09:00:16;;;;;;;8.07;7.40;;;34.60;1.00;;;;;;5089464;28;20182;-61
2021/06/19 09:02:43;;;;;;;7.53;7.03;;;34.70;1.00;;;;;;5084831;28;20211;-63
2021/06/19 09:05:14;;;;;;;17.70;10.70;;;34.80;1.00;;;;;;5069667;28;20525;-61
2021/06/19 09:07:50;;;;;;;7.83;7.20;;;34.80;1.00;;;;;;5069368;28;20446;-62
2021/06/19 09:10:35;;;;;;;12.90;8.87;;;35.00;1.00;;;;;;5076053;28;20833;-62
2021/06/19 09:13:19;;;;;;;8.00;7.40;;;35.00;1.00;;;;;;5089674;28;20432;-63
2021/06/19 09:15:54;;;;;;;8.70;8.00;;;35.00;1.00;;;;;;5089341;28;20434;-63
2021/06/19 09:18:20;;;;;;;9.67;7.47;;;34.80;1.00;;;;;;5091483;28;20559;-62
2021/06/19 09:20:52;;;;;;;8.43;7.80;;;34.70;1.00;;;;;;5093222;28;20428;-62
2021/06/19 09:23:26;;;;;;;8.60;7.80;;;34.90;1.00;;;;;;5093342;28;23347;-62
2021/06/19 09:26:12;;;;;;;8.20;7.60;;;35.20;1.00;;;;;;5092936;28;20429;-61
2021/06/19 09:29:16;;;;;;;9.87;8.90;;;35.30;1.00;;;;;;5093297;28;20463;-62
2021/06/19 09:31:52;;;;;;;9.00;8.30;;;35.50;1.00;;;;;;5093120;28;20523;-62
2021/06/19 09:34:28;;;;;;;12.90;8.33;;;35.50;1.00;;;;;;5092739;28;20917;-62
2021/06/19 09:36:57;;;;;;;8.10;7.50;;;35.20;1.00;;;;;;5092860;28;20775;-62
2021/06/19 09:39:33;;;;;;;8.70;7.90;;;35.10;1.00;;;;;;5092675;28;20558;-62
2021/06/19 09:42:04;;;;;;;8.77;7.97;;;35.30;1.00;;;;;;5092718;28;20511;-64
2021/06/19 09:44:43;;;;;;;11.13;7.70;;;35.40;1.00;;;;;;5092711;28;20460;-62
2021/06/19 09:47:11;;;;;;;8.50;7.90;;;35.50;1.00;;;;;;5092497;28;20489;-62
2021/06/19 09:49:40;;;;;;;9.03;8.23;;;35.70;1.00;;;;;;5092917;28;20476;-64
2021/06/19 09:52:07;;;;;;;8.70;8.10;;;35.80;1.00;;;;;;5092615;28;20455;-63
2021/06/19 09:54:40;;;;;;;8.53;8.00;;;36.10;1.00;;;;;;5092868;28;21698;-62
2021/06/19 09:57:11;;;;;;;9.20;8.40;;;36.20;1.00;;;;;;5092409;28;20940;-63
2021/06/19 09:59:39;;;;;;;9.03;8.43;;;36.30;1.00;;;;;;5093109;28;20443;-62
2021/06/19 10:02:29;;;;;;;8.23;7.53;;;36.10;1.00;;;;;;5092430;28;20424;-62
2021/06/19 10:04:58;;;;;;;9.00;8.23;;;36.10;1.00;;;;;;5092665;28;20460;-63
2021/06/19 10:07:25;;;;;;;8.17;7.57;;;36.10;1.00;;;;;;5092254;28;20918;-62
2021/06/19 10:09:52;;;;;;;8.40;7.73;;;36.50;1.00;;;;;;5090968;28;20524;-63
2021/06/19 10:12:25;;;;;;;8.77;8.17;;;36.60;1.00;;;;;;5092022;28;20432;-62
2021/06/19 10:15:05;;;;;;;8.70;8.20;;;36.40;1.00;;;;;;5092378;28;20833;-63
2021/06/19 10:17:33;;;;;;;9.53;8.83;;;36.10;1.00;;;;;;5092443;28;20536;-63
2021/06/19 10:20:01;;;;;;;8.67;7.97;;;35.80;1.00;;;;;;5091990;28;20425;-63
2021/06/19 10:22:31;;;;;;;8.73;8.10;;;35.80;1.00;;;;;;5092106;28;20425;-62
2021/06/19 10:25:07;;;;;;;8.97;8.30;;;35.90;1.00;;;;;;5091829;28;20460;-62
2021/06/19 10:27:34;;;;;;;8.00;7.40;;;36.10;1.00;;;;;;5090198;28;20493;-62
2021/06/19 10:30:01;;;;;;;7.93;7.03;;;36.00;1.00;;;;;;5091045;28;20432;-62
2021/06/19 10:32:47;;;;;;;7.97;7.47;;;36.40;1.00;;;;;;5077610;28;20441;-62
2021/06/19 10:35:16;;;;;;;7.43;6.93;;;36.30;1.00;;;;;;5069976;28;20491;-63
2021/06/19 10:37:46;;;;;;;8.53;7.83;;;36.40;1.00;;;;;;5071735;28;20457;-63
2021/06/19 10:40:24;;;;;;;7.47;6.77;;;35.80;1.00;;;;;;5071425;28;20429;-62
2021/06/19 10:42:51;;;;;;;8.30;7.50;;;35.70;1.00;;;;;;5070129;28;20433;-63
2021/06/19 10:45:22;;;;;;;7.63;7.13;;;35.60;1.00;;;;;;5071216;28;20539;-63
2021/06/19 10:47:59;;;;;;;8.30;7.60;;;35.60;1.00;;;;;;5071631;28;20791;-63
2021/06/19 10:50:25;;;;;;;8.30;7.50;;;35.50;1.00;;;;;;5071328;28;20790;-62
2021/06/19 10:53:04;;;;;;;8.53;7.93;;;35.60;1.00;;;;;;5071667;28;20759;-61
2021/06/19 10:55:30;;;;;;;7.37;6.90;;;35.70;1.00;;;;;;5070923;28;20437;-67
2021/06/19 10:58:01;;;;;;;8.07;7.57;;;35.70;1.00;;;;;;5071219;28;20552;-64
2021/06/19 11:00:37;;;;;;;9.10;8.40;;;35.80;1.00;;;;;;5071064;28;20444;-62
2021/06/19 11:03:07;;;;;;;8.33;7.57;;;35.40;1.00;;;;;;5071104;28;20430;-64
2021/06/19 11:05:41;;;;;;;8.90;8.30;;;35.10;1.00;;;;;;5071071;28;20953;-62
2021/06/19 11:08:12;;;;;;;8.20;7.70;;;35.20;1.00;;;;;;5071407;28;20437;-62
2021/06/19 11:10:43;;;;;;;8.80;8.10;;;35.30;1.00;;;;;;5070679;28;20532;-63
2021/06/19 11:13:27;;;;;;;8.00;7.20;;;35.40;1.00;;;;;;5071078;28;20437;-63
2021/06/19 11:15:53;;;;;;;8.83;8.23;;;35.70;1.00;;;;;;5070987;28;20866;-62
2021/06/19 11:18:47;;;;;;;9.43;8.60;;;35.80;1.00;;;;;;5071046;28;20461;-62
2021/06/19 11:21:25;;;;;;;8.90;8.20;;;35.70;1.00;;;;;;5071192;28;20516;-62
2021/06/19 11:24:03;;;;;;;9.20;8.53;;;35.40;1.00;;;;;;5071369;28;20518;-63
2021/06/19 11:27:01;;;;;;;8.50;7.90;;;35.30;1.00;;;;;;5070664;28;20433;-64
2021/06/19 11:29:41;;;;;;;8.27;7.77;;;35.60;1.00;;;;;;5070142;28;20472;-62
2021/06/19 11:32:26;;;;;;;8.90;8.10;;;35.30;1.00;;;;;;5070482;28;20425;-63
2021/06/19 11:34:57;;;;;;;8.80;8.20;;;35.30;1.00;;;;;;5069138;28;20429;-61
2021/06/19 11:37:22;;;;;;;8.50;7.60;;;35.40;1.00;;;;;;5070636;28;20512;-62
2021/06/19 11:39:48;;;;;;;8.43;7.83;;;35.60;1.00;;;;;;5069550;28;20943;-62
2021/06/19 11:42:14;;;;;;;8.20;7.50;;;35.50;1.00;;;;;;5075331;28;20557;-63
2021/06/19 11:44:45;;;;;;;7.97;7.37;;;35.50;1.00;;;;;;5090343;28;20257;-61
2021/06/19 11:47:12;;;;;;;7.80;7.27;;;35.70;1.00;;;;;;5090980;28;20798;-64
2021/06/19 11:49:43;;;;;;;7.73;7.17;;;35.70;1.00;;;;;;5090906;28;20479;-62
2021/06/19 11:52:17;;;;;;;7.10;6.47;;;35.60;1.00;;;;;;5085442;28;20456;-62
2021/06/19 11:54:48;;;;;;;6.40;5.90;;;35.70;1.00;;;;;;5070268;28;20428;-63
2021/06/19 11:57:26;;;;;;;7.13;6.43;;;36.10;1.00;;;;;;5070107;28;20500;-61
2021/06/19 12:00:04;;;;;;;7.20;6.70;;;36.00;1.00;;;;;;5070067;28;20429;-62
2021/06/19 12:02:30;;;;;;;7.60;7.10;;;35.90;1.00;;;;;;5069581;28;20798;-61
2021/06/19 12:04:55;;;;;;;7.83;7.23;;;36.10;1.00;;;;;;5069753;28;20433;-62
2021/06/19 12:07:25;;;;;;;8.50;7.13;;;35.80;1.00;;;;;;5069856;28;20271;-62
2021/06/19 12:09:52;;;;;;;6.80;6.40;;;35.60;1.00;;;;;;5069872;28;20207;-61
2021/06/19 12:12:18;;;;;;;8.57;7.87;;;35.70;1.00;;;;;;5068602;28;20466;-63
2021/06/19 12:14:43;;;;;;;7.70;7.00;;;35.60;1.00;;;;;;5069810;28;20496;-62
2021/06/19 12:17:13;;;;;;;7.80;7.33;;;35.80;1.00;;;;;;5069847;28;20433;-62
2021/06/19 12:19:44;;;;;;;7.90;7.40;;;35.80;1.00;;;;;;5068406;28;20186;-61
2021/06/19 12:22:14;;;;;;;7.97;7.47;;;35.90;1.00;;;;;;5069867;28;20764;-61
2021/06/19 12:24:49;;;;;;;7.40;6.90;;;36.00;1.00;;;;;;5069990;28;20429;-63
2021/06/19 12:27:21;;;;;;;7.40;6.90;;;35.90;1.00;;;;;;5069656;28;20440;-61
2021/06/19 12:29:56;;;;;;;6.87;6.33;;;36.00;1.00;;;;;;5069601;28;20434;-62
2021/06/19 12:32:35;;;;;;;6.20;5.80;;;35.80;1.00;;;;;;5069664;28;20429;-62
2021/06/19 12:35:12;;;;;;;7.27;6.77;;;35.60;1.00;;;;;;5069496;28;20771;-62
2021/06/19 12:37:40;;;;;;;6.50;6.00;;;35.40;1.00;;;;;;5069427;28;20958;-63
2021/06/19 12:40:11;;;;;;;5.90;5.50;;;35.50;1.00;;;;;;5069441;28;20436;-63
2021/06/19 12:42:59;;;;;;;6.17;5.77;;;35.50;1.00;;;;;;5069525;28;20557;-62
2021/06/19 12:45:33;;;;;;;6.73;6.13;;;35.70;1.00;;;;;;5068253;28;20779;-62
2021/06/19 12:47:59;;;;;;;6.43;6.03;;;35.90;1.00;;;;;;5069391;28;20446;-62
2021/06/19 12:50:30;;;;;;;7.00;6.53;;;36.00;1.00;;;;;;5069441;28;20445;-61
2021/06/19 12:53:14;;;;;;;7.03;6.50;;;35.80;1.00;;;;;;5072953;28;20183;-63
2021/06/19 12:55:44;;;;;;;7.77;7.17;;;35.90;1.00;;;;;;5073435;28;20445;-62
2021/06/19 12:58:15;;;;;;;7.23;6.63;;;36.00;1.00;;;;;;5071955;28;20796;-61
2021/06/19 13:00:45;;;;;;;7.00;6.50;;;36.20;1.00;;;;;;5073407;28;20910;-63